createdAt,value
2023-01-29T00:03:45.532Z,76.20
2023-01-29T00:08:47.517Z,75.85
2023-01-29T00:13:53.770Z,76.33
2023-01-29T00:18:55.589Z,76.24
2023-01-29T00:23:57.401Z,76.13
2023-01-29T00:29:00.742Z,76.68
2023-01-29T00:34:04.278Z,75.94
2023-01-29T00:39:10.917Z,75.59
2023-01-29T00:44:31.866Z,76.26
2023-01-29T00:49:33.568Z,75.68
2023-01-29T00:54:36.269Z,75.45
2023-01-29T00:59:38.173Z,75.09
2023-01-29T01:04:40.104Z,74.50
2023-01-29T01:10:00.713Z,73.89
2023-01-29T01:15:02.507Z,74.00
2023-01-29T01:20:05.385Z,73.70
2023-01-29T01:25:07.450Z,73.77
2023-01-29T01:30:13.025Z,73.71
2023-01-29T01:35:15.176Z,73.15
2023-01-29T01:40:20.165Z,73.15
2023-01-29T01:45:31.449Z,72.81
2023-01-29T01:50:38.664Z,70.93
2023-01-29T01:55:59.239Z,69.16
2023-01-29T02:01:01.724Z,68.52
2023-01-29T02:06:23.227Z,66.03
2023-01-29T02:11:25.387Z,66.22
2023-01-29T02:16:27.383Z,66.41
2023-01-29T02:21:55.066Z,67.08
2023-01-29T02:27:12.441Z,68.04
2023-01-29T02:32:26.418Z,67.50
2023-01-29T02:38:14.319Z,68.01
2023-01-29T02:43:51.713Z,68.38
2023-01-29T02:49:16.338Z,68.27
2023-01-29T02:54:31.355Z,68.00
2023-01-29T02:59:39.398Z,67.69
2023-01-29T03:04:47.015Z,68.40
2023-01-29T03:09:52.075Z,67.85
2023-01-29T03:15:12.103Z,68.23
2023-01-29T03:20:19.616Z,68.26
2023-01-29T03:25:42.618Z,68.52
2023-01-29T03:31:10.793Z,68.60
2023-01-29T03:36:38.066Z,68.81
2023-01-29T03:41:50.398Z,68.68
2023-01-29T03:47:13.703Z,69.15
2023-01-29T03:52:18.570Z,69.08
2023-01-29T03:57:31.805Z,68.18
2023-01-29T04:02:49.244Z,68.37
2023-01-29T04:07:57.260Z,68.14
2023-01-29T04:13:04.278Z,68.20
2023-01-29T04:18:06.849Z,68.04
2023-01-29T04:23:25.799Z,68.46
2023-01-29T04:28:50.408Z,68.46
2023-01-29T04:34:26.131Z,67.97
2023-01-29T04:39:40.111Z,67.87
2023-01-29T04:44:54.444Z,67.62
2023-01-29T04:50:06.605Z,68.21
2023-01-29T04:55:21.407Z,68.29
2023-01-29T05:00:46.667Z,68.22
2023-01-29T05:05:50.577Z,68.35
2023-01-29T05:10:54.719Z,68.40
2023-01-29T05:15:59.592Z,68.05
2023-01-29T05:21:05.944Z,67.64
2023-01-29T05:26:07.675Z,67.72
2023-01-29T05:31:09.763Z,67.75
2023-01-29T05:36:11.509Z,67.78
2023-01-29T05:41:13.279Z,67.75
2023-01-29T05:46:15.003Z,67.95
2023-01-29T05:51:16.738Z,67.61
2023-01-29T05:56:18.654Z,67.47
2023-01-29T06:01:25.139Z,67.49
2023-01-29T06:06:26.869Z,67.60
2023-01-29T06:11:29.344Z,67.83
2023-01-29T06:16:31.168Z,68.03
2023-01-29T06:21:32.892Z,68.86
2023-01-29T06:26:34.689Z,68.48
2023-01-29T06:31:39.231Z,69.10
2023-01-29T06:36:41.959Z,69.72
2023-01-29T06:41:45.365Z,69.73
2023-01-29T06:46:47.016Z,69.71
2023-01-29T06:51:48.709Z,70.37
2023-01-29T06:56:51.996Z,70.63
2023-01-29T07:01:53.685Z,70.23
2023-01-29T07:06:55.525Z,71.23
2023-01-29T07:11:57.283Z,71.39
2023-01-29T07:16:59.117Z,72.22
2023-01-29T07:22:02.564Z,72.38
2023-01-29T07:27:04.394Z,72.04
2023-01-29T07:32:07.889Z,72.20
2023-01-29T07:37:09.533Z,72.60
2023-01-29T07:42:11.228Z,72.55
2023-01-29T07:47:13.021Z,72.67
2023-01-29T07:52:14.657Z,72.31
2023-01-29T07:57:16.337Z,72.22
2023-01-29T08:02:18.068Z,72.94
2023-01-29T08:07:19.747Z,71.37
2023-01-29T08:12:21.473Z,69.05
2023-01-29T08:17:23.187Z,66.37
2023-01-29T08:22:24.943Z,63.19
2023-01-29T08:27:26.787Z,60.87
2023-01-29T08:32:28.478Z,59.52
2023-01-29T08:37:30.167Z,59.63
2023-01-29T08:42:31.882Z,59.47
2023-01-29T08:47:33.605Z,60.12
2023-01-29T08:52:35.343Z,60.40
2023-01-29T08:57:38.672Z,61.53
2023-01-29T09:02:40.484Z,62.70
2023-01-29T09:07:42.464Z,62.62
2023-01-29T09:12:44.220Z,62.60
2023-01-29T09:17:46.841Z,62.74
2023-01-29T09:22:50.623Z,62.51
2023-01-29T09:27:54.336Z,61.97
2023-01-29T09:32:56.082Z,61.50
2023-01-29T09:37:57.989Z,61.31
2023-01-29T09:43:16.790Z,61.17
2023-01-29T09:48:20.123Z,60.86
2023-01-29T09:53:32.648Z,60.95
2023-01-29T09:58:37.929Z,60.92
2023-01-29T10:04:13.739Z,61.26
2023-01-29T10:09:27.461Z,60.63
2023-01-29T10:14:39.486Z,60.60
2023-01-29T10:20:02.555Z,60.68
2023-01-29T10:25:09.183Z,59.73
2023-01-29T10:30:38.514Z,59.14
2023-01-29T10:35:55.896Z,59.23
2023-01-29T10:41:04.447Z,59.22
2023-01-29T10:46:14.345Z,58.67
2023-01-29T10:51:38.714Z,59.03
2023-01-29T10:57:11.432Z,58.95
2023-01-29T11:02:17.800Z,58.99
2023-01-29T11:07:23.225Z,59.08
2023-01-29T11:12:30.960Z,58.45
2023-01-29T11:17:32.884Z,58.10
2023-01-29T11:22:34.560Z,57.75
2023-01-29T11:27:44.257Z,58.05
2023-01-29T11:32:51.861Z,57.54
2023-01-29T11:38:07.293Z,57.47
2023-01-29T11:43:18.191Z,57.36
2023-01-29T11:48:23.104Z,56.46
2023-01-29T11:53:36.541Z,56.44
2023-01-29T11:58:41.864Z,56.50
2023-01-29T12:03:55.021Z,56.63
2023-01-29T12:09:00.169Z,56.23
2023-01-29T12:14:05.750Z,55.92
2023-01-29T12:19:07.434Z,56.66
2023-01-29T12:24:28.484Z,56.07
2023-01-29T12:30:03.833Z,56.43
2023-01-29T12:35:16.431Z,56.15
2023-01-29T12:40:20.298Z,55.97
2023-01-29T12:45:25.018Z,56.46
2023-01-29T12:50:30.015Z,56.49
2023-01-29T12:55:44.331Z,57.30
2023-01-29T13:00:51.384Z,57.57
2023-01-29T13:05:57.225Z,57.44
2023-01-29T13:11:04.317Z,57.55
2023-01-29T13:16:12.326Z,57.14
2023-01-29T13:21:19.278Z,57.08
2023-01-29T13:26:22.496Z,57.36
2023-01-29T13:31:33.056Z,57.71
2023-01-29T13:36:41.076Z,57.90
2023-01-29T13:41:43.711Z,58.11
2023-01-29T13:46:51.708Z,58.05
2023-01-29T13:51:54.111Z,57.99
2023-01-29T13:56:55.732Z,57.86
2023-01-29T14:02:03.796Z,58.28
2023-01-29T14:07:43.913Z,58.07
2023-01-29T14:12:46.589Z,58.09
2023-01-29T14:18:21.167Z,58.49
2023-01-29T14:23:25.249Z,59.24
2023-01-29T14:28:30.725Z,59.19
2023-01-29T14:33:39.161Z,59.81
2023-01-29T14:38:48.664Z,60.07
2023-01-29T14:43:50.472Z,60.79
2023-01-29T14:48:53.208Z,60.61
2023-01-29T14:54:06.444Z,61.11
2023-01-29T14:59:20.078Z,60.90
2023-01-29T15:04:29.840Z,61.70
2023-01-29T15:09:36.857Z,62.49
2023-01-29T15:14:46.953Z,62.69
2023-01-29T15:19:49.775Z,62.94
2023-01-29T15:25:14.865Z,63.39
2023-01-29T15:30:23.651Z,62.88
2023-01-29T15:35:30.976Z,63.14
2023-01-29T15:40:34.240Z,63.02
2023-01-29T15:45:40.807Z,63.17
2023-01-29T15:50:43.508Z,63.03
2023-01-29T15:55:47.464Z,63.38
2023-01-29T16:00:54.427Z,63.61
2023-01-29T16:05:56.815Z,63.65
2023-01-29T16:11:01.864Z,64.00
2023-01-29T16:16:04.880Z,64.17
2023-01-29T16:21:12.907Z,64.18
2023-01-29T16:26:19.866Z,64.25
2023-01-29T16:31:28.943Z,64.47
2023-01-29T16:36:31.088Z,64.92
2023-01-29T16:41:39.009Z,65.08
2023-01-29T16:46:53.076Z,64.71
2023-01-29T16:51:56.505Z,64.89
2023-01-29T16:57:00.398Z,64.83
2023-01-29T17:02:03.635Z,64.68
2023-01-29T17:07:05.345Z,64.63
2023-01-29T17:12:16.688Z,64.50
2023-01-29T17:17:18.941Z,64.32
2023-01-29T17:22:20.578Z,64.42
2023-01-29T17:27:23.195Z,64.47
2023-01-29T17:32:25.596Z,64.06
2023-01-29T17:37:45.999Z,64.06
2023-01-29T17:42:48.882Z,64.04
2023-01-29T17:47:50.771Z,63.93
2023-01-29T17:52:53.864Z,64.32
2023-01-29T17:57:55.605Z,64.28
2023-01-29T18:02:58.122Z,63.94
2023-01-29T18:07:59.885Z,64.60
2023-01-29T18:13:01.942Z,64.14
2023-01-29T18:18:04.999Z,64.66
2023-01-29T18:23:08.307Z,64.58
2023-01-29T18:28:14.879Z,65.10
2023-01-29T18:33:18.516Z,65.05
2023-01-29T18:38:23.034Z,65.39
2023-01-29T18:43:26.313Z,65.40
2023-01-29T18:48:29.663Z,65.29
2023-01-29T18:53:33.533Z,65.66
2023-01-29T18:58:36.909Z,65.71
2023-01-29T19:03:40.525Z,65.81
2023-01-29T19:08:43.247Z,66.11
2023-01-29T19:13:46.261Z,66.15
2023-01-29T19:18:48.549Z,66.08
2023-01-29T19:23:50.265Z,67.07
2023-01-29T19:28:52.220Z,66.93
2023-01-29T19:33:54.309Z,67.34
2023-01-29T19:38:56.706Z,66.92
2023-01-29T19:43:59.102Z,67.55
2023-01-29T19:49:00.917Z,67.60
2023-01-29T19:54:02.671Z,67.84
2023-01-29T19:59:07.511Z,67.31
2023-01-29T20:04:29.482Z,67.66
2023-01-29T20:09:31.451Z,67.84
2023-01-29T20:14:33.121Z,67.74
2023-01-29T20:19:34.904Z,68.12
2023-01-29T20:24:39.555Z,68.11
2023-01-29T20:29:41.557Z,68.02
2023-01-29T20:34:43.432Z,68.04
2023-01-29T20:39:45.382Z,68.15
2023-01-29T20:44:47.316Z,68.40
2023-01-29T20:49:49.125Z,68.47
2023-01-29T20:54:50.854Z,67.98
2023-01-29T20:59:52.899Z,68.75
2023-01-29T21:04:55.033Z,68.93
2023-01-29T21:09:56.752Z,68.53
2023-01-29T21:14:58.514Z,68.65
2023-01-29T21:20:00.202Z,68.74
2023-01-29T21:25:01.993Z,69.33
2023-01-29T21:30:04.872Z,69.28
2023-01-29T21:35:08.117Z,69.19
2023-01-29T21:40:11.034Z,69.33
2023-01-29T21:45:12.843Z,69.48
2023-01-29T21:50:14.899Z,68.95
2023-01-29T21:55:17.068Z,69.41
2023-01-29T22:00:19.494Z,70.17
2023-01-29T22:05:21.414Z,69.59
2023-01-29T22:10:23.430Z,69.73
2023-01-29T22:15:26.772Z,68.94
2023-01-29T22:20:30.739Z,68.41
2023-01-29T22:25:33.490Z,68.28
2023-01-29T22:30:35.254Z,68.04
2023-01-29T22:35:37.331Z,68.33
2023-01-29T22:40:39.207Z,68.36
2023-01-29T22:45:41.066Z,67.72
2023-01-29T22:50:42.752Z,67.95
2023-01-29T22:55:44.443Z,67.69
2023-01-29T23:00:50.121Z,68.24
2023-01-29T23:05:51.918Z,67.78
2023-01-29T23:10:53.999Z,67.87
2023-01-29T23:15:59.664Z,68.16
2023-01-29T23:21:01.933Z,67.62
2023-01-29T23:26:24.480Z,67.66
2023-01-29T23:31:26.584Z,67.74
2023-01-29T23:36:28.582Z,67.27
2023-01-29T23:41:30.543Z,67.34
2023-01-29T23:46:32.617Z,67.84
2023-01-29T23:51:34.588Z,68.02
2023-01-29T23:56:36.252Z,67.74
